Situs API Video Gratis Terbaik

AVDBAPI.COM

Cari katalog, periksa data, dan salin URL API bersih dari satu dasbor cepat.

Telegram Gabung komunitas Telegram untuk update!
Today
36
Pembaruan Hari Ini
Censored
314014
Video Disensor
Total
474173
Total Video

Daftar Video

Data terbaru diurutkan berdasarkan waktu pembaruan.

ID Nama CODE Kategori Diperbarui API
263319 FC2-PPV-4504932 Kakak Cantik, Aku Lagi Susah Gara-gara Bapak Tua Ini, Harus Tanggung Jawab Pakai Mainan... Dijilat dan Ditater Vagina Perawan Oleh Om, Saking Enaknya Sampai Syok, Hajar Terus Kayak Tombak FC2-PPV-4504932 Tanpa sensor 2025-08-28 23:24:50 API
263318 071321-502 Perawatan spesial untuk membangkitkan gairah pria kotor 071321-502 Tanpa sensor 2025-08-28 23:24:40 API
263317 091421-01 Saat Hostess Pemandu Minum Obat Perangsang, Dia Jadi Gatal dan Membiarkan Aku Keluar di Dalam 3 Kali Berturut 091421-01 Tanpa sensor 2025-08-28 23:24:30 API
263316 020317-002 Setelah Jam 6 ~ Semprot Sperma Mentah ke Dalam Istri Cantik ~ 020317-002 Tanpa sensor 2025-08-28 23:24:20 API
263315 061122-001 Pelayan Cantik Kecanduan Dimarahi Majikannya! Sakurai Emi 061122-001 Tanpa sensor 2025-08-28 23:24:10 API
263314 C0930-KI220120 Yui Mizuguchi, Gadis Cantik Berusia 22 Tahun C0930-KI220120 Tanpa sensor 2025-08-28 23:24:00 API
263313 H4610-KI220821 Nami Fujioka Usia 27 Tahun H4610-KI220821 Tanpa sensor 2025-08-28 23:23:50 API
263312 H0930-KI220529 Yuri Nonoda Usia 30 Tahun H0930-KI220529 Tanpa sensor 2025-08-28 23:23:40 API
263311 HEYZO-2759 Rii Takasaki | Nikmati pie lezat bersama Rii Takasaki! HEYZO-2759 Tanpa sensor 2025-08-28 23:23:30 API
263310 FC2-PPV-4500909 [Mesin Stimulasi] Si Cantik Minato Ward dengan Tubuh dan Kulit Seksi, Melakukan Latihan Seks yang Sangat Bergairah FC2-PPV-4500909 Tanpa sensor 2025-08-28 23:23:20 API
263309 071521-503 Istri Kimono yang Gatel dan Selingkuhannya 071521-503 Tanpa sensor 2025-08-28 23:23:10 API
263308 PP041 Fallen Angel No.041 Naomi PP041 Tanpa sensor 2025-08-28 23:23:00 API
263307 011121_001 Koleksi Terbaik 1pondo 2020 - Top 10 011121_001 Tanpa sensor 2025-08-28 23:22:50 API
263306 091621-01 Hari ini dapet banyak banget 091621-01 Tanpa sensor 2025-08-28 23:22:40 API
263305 HEYZO-2783 Manami - Gadis dicukur mulus yang penurut, jadi tempat kencing daging demi aktris impian dan bisa langsung dikentot HEYZO-2783 Tanpa sensor 2025-08-28 23:22:30 API
263304 061422-001 Kencan Seru di Taman Hiburan dengan Kemesraan yang Lebih Liar dari Biasanya Bersama Etch Amber Uta 061422-001 Tanpa sensor 2025-08-28 23:22:20 API
263303 C0930-KI220123 Shinobu Mikami Umur 21 Tahun C0930-KI220123 Tanpa sensor 2025-08-28 23:22:10 API
263302 020817-005 Asagiri Hikaru Edisi Bulanan 020817-005 Tanpa sensor 2025-08-28 23:22:00 API
263301 071721-504 Bawa kursi mesumnya! Penampilan dan pelayanannya 100 poin dari 100 071721-504 Tanpa sensor 2025-08-28 23:21:50 API
263300 H4610-KI220820 Fitur Ngompol H4610-KI220820 Tanpa sensor 2025-08-28 23:21:40 API
263299 FC2-PPV-4505616 Adik Sexy Wakaba Chapan Diperas dan Digulingkan Sampai Klimaks! FC2-PPV-4505616 Tanpa sensor 2025-08-28 23:21:30 API
263298 H0930-KI220528 Spesial Kencing: Cewek 20 Tahun Ngompol H0930-KI220528 Tanpa sensor 2025-08-28 23:21:20 API
263297 HEYZO-2756 Mai Shirakawa [Shirakawamai] Hubungan seks tak tertandingi pasangan LDR HEYZO-2756 Tanpa sensor 2025-08-28 23:21:10 API
263296 C0930-TK0051 Wanita Seksi 28 Tahun Yumiko Nonoichi C0930-TK0051 Tanpa sensor 2025-08-28 23:21:00 API
263295 SR042 Rekaman Rekrutmen Lulusan Baru No.042 Ayaka [Rekaman Pribadi] SR042 Tanpa sensor 2025-08-28 23:20:50 API
263294 091821-01 Hari ini dapet banyak banget sikatnya 091821-01 Tanpa sensor 2025-08-28 23:20:40 API
263293 061522-001 Unreleased ~ Blowjob 2 Mulut yang Luar Biasa Belum Pernah Ada Sebelumnya Bersama Futaba Karin, Morishita Nanako, Asahina Mayan, Misaki Mayan, Sudo Nako, Sudo Rino, Sakuragi 061522-001 Tanpa sensor 2025-08-28 23:20:30 API
263292 H0930-ORI1631 Kaoru Miyashige Wanita Seksi Usia 30 Tahun H0930-ORI1631 Tanpa sensor 2025-08-28 23:20:20 API
263291 H4610-TK0067 Mika Shigeeda Gadis 20 Tahun H4610-TK0067 Tanpa sensor 2025-08-28 23:20:10 API
263290 011221_002 Koleksi Terbaik 1pondo 2020 ~ Top 10 ~ 011221_002 Tanpa sensor 2025-08-28 23:20:00 API
263289 072121-111 Wanita Dari Masa Lalu - Wakana & Suara Rintik Hujan - 072121-111 Tanpa sensor 2025-08-28 23:19:50 API
263288 HEYZO-2762 Godaan Cabul Si Pelacur Matang Otsuki [Otsukino] Menuruti Hasrat Liar Pria! HEYZO-2762 Tanpa sensor 2025-08-28 23:19:40 API
263287 020817-004 Reuni Panas di Acara Reuni Alumni 020817-004 Tanpa sensor 2025-08-28 23:19:30 API
263286 061722-001 Tusukan Beruntun 180 Menit Gelombang Orgasme ~ Masukin terus, emut terus! 5 kontol keluarin sperma di dalam vagina sampai menyerah! ~ Part 2 Emiri Momota 061722-001 Tanpa sensor 2025-08-28 23:19:20 API
263285 091921-01 [VR] Prajna Si Pembisik yang Menggoda 091921-01 Tanpa sensor 2025-08-28 23:19:10 API
263284 C-220123 Shinobu Mikami, Gadis 21 Tahun C-220123 Tanpa sensor 2025-08-28 23:19:00 API
263283 FC2-PPV-4505228 Setelah makan siang, kami pergi ke kawasan mewah dan toko miras tempat wanita paling populer tinggal untuk berselingkuh FC2-PPV-4505228 Tanpa sensor 2025-08-28 23:18:50 API
263282 H-220821 Nami Fujioka H-220821 Tanpa sensor 2025-08-28 23:18:40 API
263280 020817-003 Kura Cangkang Lunak di Depan Pintu 13 ~ Istri Do M Akan Melayani di Depan Pintu ~ 020817-003 Tanpa sensor 2025-08-28 23:18:20 API
263279 HEYZO-2774 Haruka Nishimoto [Haruka Nishimoto] Suka Banget Isap Tetek! Haruka HEYZO-2774 Tanpa sensor 2025-08-28 23:18:10 API
263278 H0930-KI220531 Ryoko Yamamoto Usia 30 Tahun H0930-KI220531 Tanpa sensor 2025-08-28 23:18:00 API
263277 011221_001 Koleksi Terbaik 1pondo 2020 ~ ~ 011221_001 Tanpa sensor 2025-08-28 23:17:50 API
263276 072421-506 Sayang, biarkan aku beli underwear yang kupakai sekarang! ~ Set bra dan panty seksi milik istri tercinta ~ 072421-506 Tanpa sensor 2025-08-28 23:17:40 API
263275 092121-01 Malaikat Berbaju Putih Memonopoli Kontolmu! 092121-01 Tanpa sensor 2025-08-28 23:17:30 API
263274 C0930-KI220125 Kayo Nishihara Wanita Seksi Usia 40 Tahun C0930-KI220125 Tanpa sensor 2025-08-28 23:17:20 API
263272 FC2-PPV-4504363 Penghargaan Rejikin - Ekspresi Payudara Cantik! Sena 25 tahun E-CUP RAW MAGIC IKI MAKICHO SEMPROT Sperma [Versi Luar Negeri] FC2-PPV-4504363 Tanpa sensor 2025-08-28 23:17:00 API
263271 061822-001 Kisah Putri Gelembung Terbaik Vol.102 Mai Yoshino 061822-001 Tanpa sensor 2025-08-28 23:16:50 API
263270 H0930-KI220602 Kimiko Fukumoto Usia 58 Tahun H0930-KI220602 Tanpa sensor 2025-08-28 23:16:40 API
263269 H-0067 Shigeeda Mika H-0067 Tanpa sensor 2025-08-28 23:16:30 API
263268 020817-002 002 Bikin Kaget! Si Kecil yang Liar! Perselingkuhan Tanpa Pengaman 020817-002 Tanpa sensor 2025-08-28 23:16:20 API